Terminal Aerodrome Forecast
Issued by NWS

Home | Current Version | Previous Version | Text Only | Print | Product List | Glossary On
Versions: 1 2 3 4 5 6 7 8 9 10 11 12 13 14 15 16
000
FTUS43 KILX 132300
TAFDEC
TAF
KDEC 132326Z 1400/1424 VRB04KT P6SM FEW040
     FM141600 29010KT P6SM VCSH SCT030 BKN120=

USA.gov is the U.S. government's official web portal to all federal, state and local government web resources and services.